Time;durP1;ratioP1;P1;durP2;ratioP2;P2;SDS_P1;SDS_P2;PMS_P1;PMS_P2;Temp;Humidity;BMP_temperature;BMP_pressure;BME280_temperature;BME280_humidity;BME280_pressure;Samples;Min_cycle;Max_cycle;Signal;HPM_P1;HPM_P2
2021/11/04 00:01:06;;;;;;;1.63;1.63;;;8.60;98.00;;;;;;6184679;23;20457;-69
2021/11/04 00:03:35;;;;;;;1.20;1.10;;;8.50;98.00;;;;;;6185077;23;20410;-70
2021/11/04 00:06:03;;;;;;;1.30;1.10;;;8.50;98.00;;;;;;6184120;23;20403;-68
2021/11/04 00:08:31;;;;;;;1.33;1.27;;;8.60;98.00;;;;;;6184322;23;20402;-70
2021/11/04 00:10:59;;;;;;;2.17;1.97;;;8.60;98.00;;;;;;6158745;23;20402;-68
2021/11/04 00:13:26;;;;;;;1.30;1.20;;;8.70;98.00;;;;;;6184186;23;20860;-69
2021/11/04 00:15:53;;;;;;;2.60;1.50;;;8.80;98.00;;;;;;6184001;23;20445;-69
2021/11/04 00:18:20;;;;;;;1.40;1.20;;;8.90;98.00;;;;;;6158132;23;20913;-69
2021/11/04 00:20:47;;;;;;;2.23;1.40;;;8.90;98.00;;;;;;6184165;23;20471;-69
2021/11/04 00:23:14;;;;;;;1.83;1.57;;;8.80;98.00;;;;;;6158041;23;20431;-68
2021/11/04 00:25:41;;;;;;;1.53;1.47;;;8.80;98.00;;;;;;6158155;23;20398;-69
2021/11/04 00:28:10;;;;;;;1.90;1.70;;;8.70;98.00;;;;;;6184055;23;20399;-69
2021/11/04 00:30:38;;;;;;;1.43;1.20;;;8.70;98.00;;;;;;6184257;23;20400;-69
2021/11/04 00:33:05;;;;;;;1.30;1.20;;;8.60;98.00;;;;;;6133644;23;20919;-68
2021/11/04 00:35:32;;;;;;;1.20;1.10;;;8.60;98.00;;;;;;6184364;23;20449;-68
2021/11/04 00:37:59;;;;;;;3.63;1.70;;;8.60;98.00;;;;;;6157753;23;20417;-68
2021/11/04 00:40:26;;;;;;;1.73;1.53;;;8.60;98.00;;;;;;6183750;23;20483;-69
2021/11/04 00:42:53;;;;;;;1.30;1.20;;;8.60;98.00;;;;;;6184177;23;20465;-68
2021/11/04 00:45:22;;;;;;;3.00;2.30;;;8.60;98.00;;;;;;6184297;23;20397;-68
2021/11/04 00:47:50;;;;;;;1.20;1.10;;;8.50;98.00;;;;;;6184155;23;20747;-68
2021/11/04 00:50:17;;;;;;;1.40;1.30;;;8.50;98.00;;;;;;6184023;23;20406;-69
2021/11/04 00:52:44;;;;;;;1.50;1.37;;;8.60;98.00;;;;;;6184459;23;20418;-69
2021/11/04 00:55:11;;;;;;;1.47;1.17;;;8.70;98.00;;;;;;6158253;23;20767;-68
2021/11/04 00:57:39;;;;;;;2.80;1.80;;;8.70;98.00;;;;;;6184344;23;20407;-69
2021/11/04 01:00:10;;;;;;;1.63;1.40;;;8.60;98.00;;;;;;6184130;23;20410;-69
2021/11/04 01:02:38;;;;;;;1.43;1.40;;;8.60;98.00;;;;;;6184536;23;20409;-68
2021/11/04 01:05:06;;;;;;;1.20;1.20;;;8.70;98.00;;;;;;6184454;23;20455;-70
2021/11/04 01:07:34;;;;;;;1.40;1.27;;;8.80;98.00;;;;;;6184581;23;20473;-68
2021/11/04 01:10:01;;;;;;;4.20;2.40;;;8.70;98.00;;;;;;6184208;23;20943;-69
2021/11/04 01:12:28;;;;;;;1.63;1.50;;;8.60;98.00;;;;;;6184283;23;20414;-68
2021/11/04 01:14:55;;;;;;;1.50;1.40;;;8.70;98.00;;;;;;6184035;23;20402;-68
2021/11/04 01:17:22;;;;;;;1.53;1.50;;;8.60;98.00;;;;;;6184374;23;20433;-69
2021/11/04 01:19:50;;;;;;;1.30;1.20;;;8.40;98.00;;;;;;6183879;23;20410;-68
2021/11/04 01:22:18;;;;;;;1.20;1.10;;;8.30;98.00;;;;;;6183769;23;20405;-68
2021/11/04 01:24:45;;;;;;;1.50;1.40;;;8.30;98.00;;;;;;6184296;23;20405;-68
2021/11/04 01:27:12;;;;;;;1.80;1.27;;;8.20;98.00;;;;;;6183661;23;20406;-69
2021/11/04 01:29:39;;;;;;;3.67;1.63;;;8.20;98.00;;;;;;6184067;23;20411;-68
2021/11/04 01:32:07;;;;;;;1.80;1.50;;;8.30;98.00;;;;;;6183826;23;20413;-69
2021/11/04 01:34:34;;;;;;;1.83;1.50;;;8.20;98.00;;;;;;6183883;23;20760;-68
2021/11/04 01:37:02;;;;;;;1.30;1.20;;;8.30;98.00;;;;;;6183686;23;20922;-68
2021/11/04 01:39:29;;;;;;;1.30;1.20;;;8.40;98.00;;;;;;6184199;23;20411;-68
2021/11/04 01:41:56;;;;;;;3.57;2.97;;;8.50;98.00;;;;;;6184006;23;20773;-68
2021/11/04 01:44:23;;;;;;;1.30;1.23;;;8.60;98.00;;;;;;6184197;23;20404;-68
2021/11/04 01:46:51;;;;;;;1.43;1.27;;;8.60;98.00;;;;;;6183853;23;20508;-68
2021/11/04 01:49:18;;;;;;;1.30;1.10;;;8.60;98.00;;;;;;6183913;23;20403;-68
2021/11/04 01:51:46;;;;;;;1.60;1.50;;;8.70;98.00;;;;;;6185785;23;20397;-69
2021/11/04 01:54:14;;;;;;;2.20;1.80;;;8.60;98.00;;;;;;6185935;23;20410;-69
2021/11/04 01:56:42;;;;;;;2.17;1.20;;;8.50;98.00;;;;;;6185476;23;20427;-68
2021/11/04 01:59:09;;;;;;;1.30;1.10;;;8.40;98.00;;;;;;6185513;23;20443;-68
2021/11/04 02:01:37;;;;;;;1.40;1.20;;;8.50;98.00;;;;;;6185889;23;20446;-68
2021/11/04 02:04:15;;;;;;;2.07;1.27;;;8.50;98.00;;;;;;6185956;23;20456;-68
2021/11/04 02:06:49;;;;;;;1.30;1.20;;;8.30;98.00;;;;;;6185944;23;20453;-69
2021/11/04 02:09:24;;;;;;;1.20;1.00;;;8.30;98.00;;;;;;6185644;23;20403;-68
2021/11/04 02:11:54;;;;;;;1.20;1.10;;;8.30;98.00;;;;;;6185896;23;20402;-68
2021/11/04 02:14:25;;;;;;;1.20;1.20;;;8.30;98.00;;;;;;6185930;23;20496;-68
2021/11/04 02:16:53;;;;;;;4.40;1.50;;;8.20;98.00;;;;;;6185853;23;20484;-69
2021/11/04 02:19:41;;;;;;;1.40;1.17;;;8.20;98.00;;;;;;6186027;23;20460;-68
2021/11/04 02:22:13;;;;;;;1.80;1.50;;;8.30;98.00;;;;;;6185524;23;20417;-68
2021/11/04 02:24:47;;;;;;;1.50;1.40;;;8.30;98.00;;;;;;6185893;23;20400;-69
2021/11/04 02:27:17;;;;;;;1.20;1.13;;;8.30;98.00;;;;;;6185570;23;20403;-69
2021/11/04 02:29:45;;;;;;;1.67;1.60;;;8.30;98.00;;;;;;6185568;23;20397;-68
2021/11/04 02:32:13;;;;;;;1.73;1.57;;;8.40;98.00;;;;;;6159012;23;20924;-68
2021/11/04 02:34:42;;;;;;;1.20;1.07;;;8.40;98.00;;;;;;6185318;23;20403;-69
2021/11/04 02:37:10;;;;;;;1.50;1.20;;;8.40;98.00;;;;;;6184956;23;20430;-68
2021/11/04 02:39:39;;;;;;;1.93;1.40;;;8.40;98.00;;;;;;6185088;23;20399;-69
2021/11/04 02:42:07;;;;;;;1.20;1.00;;;8.50;98.00;;;;;;6185230;23;20402;-67
2021/11/04 02:44:36;;;;;;;1.20;1.03;;;8.50;98.00;;;;;;6185317;23;20403;-69
2021/11/04 02:47:04;;;;;;;1.30;1.00;;;8.40;98.00;;;;;;6185259;23;20952;-70
2021/11/04 02:49:32;;;;;;;1.20;1.00;;;8.30;98.00;;;;;;6184983;23;20472;-68
2021/11/04 02:52:01;;;;;;;1.20;0.90;;;8.10;98.00;;;;;;6185372;23;20404;-68
2021/11/04 02:54:30;;;;;;;1.40;1.10;;;7.80;98.00;;;;;;6185418;23;20451;-68
2021/11/04 02:56:59;;;;;;;1.37;1.10;;;7.70;98.00;;;;;;6185270;23;20431;-69
2021/11/04 02:59:28;;;;;;;1.20;1.00;;;7.60;98.00;;;;;;6184983;23;20947;-68
2021/11/04 03:02:00;;;;;;;1.20;1.00;;;7.50;98.00;;;;;;6184860;23;20949;-68
2021/11/04 03:04:27;;;;;;;1.20;1.00;;;7.50;98.00;;;;;;6184929;23;20418;-68
2021/11/04 03:06:54;;;;;;;1.40;1.10;;;7.40;98.00;;;;;;6184779;23;20403;-69
2021/11/04 03:09:22;;;;;;;1.80;1.20;;;7.20;98.00;;;;;;6185345;23;20712;-69
2021/11/04 03:11:49;;;;;;;1.20;1.00;;;7.10;98.00;;;;;;6184978;23;20859;-69
2021/11/04 03:14:17;;;;;;;1.20;0.90;;;7.00;98.00;;;;;;6159308;23;20401;-68
2021/11/04 03:16:47;;;;;;;1.20;1.00;;;6.80;98.00;;;;;;6184721;23;20428;-68
2021/11/04 03:19:17;;;;;;;1.20;1.03;;;6.70;98.00;;;;;;6185231;23;20422;-68
2021/11/04 03:21:48;;;;;;;1.10;0.90;;;6.70;98.00;;;;;;6185286;23;20404;-68
2021/11/04 03:24:18;;;;;;;1.37;1.10;;;6.80;98.00;;;;;;6184681;23;20396;-68
2021/11/04 03:26:46;;;;;;;1.17;1.00;;;6.60;98.00;;;;;;6185245;23;20392;-68
2021/11/04 03:29:16;;;;;;;1.10;1.00;;;6.60;98.00;;;;;;6184910;23;20430;-70
2021/11/04 03:31:45;;;;;;;1.10;0.90;;;6.70;98.00;;;;;;6184675;23;20454;-68
2021/11/04 03:34:12;;;;;;;1.10;1.00;;;6.80;98.00;;;;;;6184804;23;20425;-69
2021/11/04 03:36:42;;;;;;;1.10;0.90;;;6.80;98.00;;;;;;6185135;23;20433;-69
2021/11/04 03:39:09;;;;;;;1.20;0.90;;;6.80;98.00;;;;;;6185188;23;20729;-69
2021/11/04 03:41:37;;;;;;;1.20;1.00;;;6.70;98.00;;;;;;6185111;23;20471;-68
2021/11/04 03:44:06;;;;;;;1.20;1.00;;;6.80;98.00;;;;;;6185210;23;20419;-69
2021/11/04 03:46:34;;;;;;;1.20;1.00;;;6.70;98.00;;;;;;6184144;23;20496;-69
2021/11/04 03:49:01;;;;;;;1.40;1.27;;;6.80;98.00;;;;;;6183931;23;20423;-69
2021/11/04 03:51:31;;;;;;;1.20;1.00;;;6.80;98.00;;;;;;6184208;23;20779;-69
2021/11/04 03:54:00;;;;;;;1.20;1.00;;;6.80;98.00;;;;;;6158384;23;20428;-69
2021/11/04 03:56:28;;;;;;;1.20;1.00;;;6.80;98.00;;;;;;6184243;23;20460;-68
2021/11/04 03:58:55;;;;;;;1.20;1.00;;;6.80;98.00;;;;;;6184388;23;20399;-69
2021/11/04 04:01:24;;;;;;;1.20;1.00;;;6.90;98.00;;;;;;6184319;23;20870;-70
2021/11/04 04:03:52;;;;;;;1.20;1.00;;;6.90;98.00;;;;;;6158907;23;20398;-70
2021/11/04 04:06:22;;;;;;;1.20;0.97;;;7.00;98.00;;;;;;6184166;23;20419;-69
2021/11/04 04:08:52;;;;;;;1.20;1.00;;;7.00;98.00;;;;;;6158685;23;20516;-68
2021/11/04 04:11:22;;;;;;;1.20;0.90;;;7.10;98.00;;;;;;6184248;23;20895;-68
2021/11/04 04:13:50;;;;;;;1.30;1.20;;;7.10;98.00;;;;;;6158734;23;20396;-69
2021/11/04 04:16:18;;;;;;;1.20;1.00;;;7.20;98.00;;;;;;6184493;23;20401;-71
2021/11/04 04:18:45;;;;;;;1.23;1.13;;;7.20;98.00;;;;;;6184270;23;20426;-68
2021/11/04 04:21:12;;;;;;;1.20;1.00;;;7.20;98.00;;;;;;6184009;23;20774;-68
2021/11/04 04:23:39;;;;;;;1.20;1.00;;;7.40;98.00;;;;;;6184599;23;20485;-68
2021/11/04 04:26:06;;;;;;;1.20;0.90;;;7.20;98.00;;;;;;6184279;23;20945;-69
2021/11/04 04:28:35;;;;;;;1.20;0.90;;;7.20;98.00;;;;;;6184634;23;20871;-68
2021/11/04 04:31:04;;;;;;;1.57;1.10;;;7.30;98.00;;;;;;6184498;23;20402;-68
2021/11/04 04:33:31;;;;;;;1.20;1.10;;;7.20;98.00;;;;;;6184652;23;20406;-69
2021/11/04 04:35:58;;;;;;;1.20;0.90;;;7.10;98.00;;;;;;6184468;23;20438;-68
2021/11/04 04:38:25;;;;;;;3.63;1.23;;;7.20;98.00;;;;;;6158333;23;20498;-69
2021/11/04 04:40:52;;;;;;;1.20;0.90;;;7.00;98.00;;;;;;6184463;23;20460;-69
2021/11/04 04:43:19;;;;;;;1.20;1.00;;;6.90;98.00;;;;;;6184586;23;20407;-69
2021/11/04 04:45:48;;;;;;;1.20;1.00;;;7.10;98.00;;;;;;6184064;23;20472;-69
2021/11/04 04:48:15;;;;;;;1.20;0.90;;;7.00;98.00;;;;;;6184244;23;20427;-69
2021/11/04 04:50:43;;;;;;;1.20;1.00;;;7.10;98.00;;;;;;6184183;23;20931;-68
2021/11/04 04:53:10;;;;;;;1.20;1.00;;;7.10;98.00;;;;;;6184607;23;20764;-71
2021/11/04 04:55:37;;;;;;;1.63;1.00;;;7.10;98.00;;;;;;6183762;23;20426;-69
2021/11/04 04:58:06;;;;;;;1.30;1.20;;;7.00;98.00;;;;;;6184370;23;20450;-69
2021/11/04 05:00:33;;;;;;;1.20;0.90;;;7.00;98.00;;;;;;6184294;23;20488;-69
2021/11/04 05:03:03;;;;;;;1.20;1.00;;;6.90;98.00;;;;;;6184202;23;20452;-68
2021/11/04 05:05:31;;;;;;;1.20;1.00;;;6.90;98.00;;;;;;6158394;23;20401;-69
2021/11/04 05:07:58;;;;;;;1.20;1.00;;;6.80;98.00;;;;;;6184422;23;20459;-69
2021/11/04 05:10:25;;;;;;;1.20;1.00;;;6.70;98.00;;;;;;6184327;23;20402;-68
2021/11/04 05:12:52;;;;;;;1.93;1.20;;;6.80;98.00;;;;;;6184231;23;20417;-69
2021/11/04 05:15:19;;;;;;;1.20;1.00;;;6.70;98.00;;;;;;6158257;23;20475;-69
2021/11/04 05:17:46;;;;;;;1.20;0.90;;;6.70;98.00;;;;;;6183774;23;20432;-68
2021/11/04 05:20:15;;;;;;;1.20;1.00;;;6.70;98.00;;;;;;6184268;23;20413;-69
2021/11/04 05:22:42;;;;;;;1.20;1.00;;;6.80;98.00;;;;;;6158175;23;20408;-69
2021/11/04 05:25:09;;;;;;;1.40;1.10;;;6.80;98.00;;;;;;6184800;23;20997;-69
2021/11/04 05:27:37;;;;;;;1.20;0.90;;;6.90;98.00;;;;;;6186192;23;20408;-69
2021/11/04 05:30:05;;;;;;;1.20;1.00;;;6.90;98.00;;;;;;6185861;23;20886;-70
2021/11/04 05:32:32;;;;;;;1.20;1.00;;;7.00;98.00;;;;;;6159943;23;20427;-69
2021/11/04 05:34:59;;;;;;;1.30;1.10;;;7.10;98.00;;;;;;6159983;23;20857;-71
2021/11/04 05:37:28;;;;;;;1.20;1.00;;;7.10;98.00;;;;;;6186027;23;20435;-68
2021/11/04 05:39:55;;;;;;;1.20;1.00;;;7.20;98.00;;;;;;6185887;23;20400;-69
2021/11/04 05:42:22;;;;;;;1.20;0.97;;;7.20;98.00;;;;;;6159922;23;20777;-69
2021/11/04 05:44:50;;;;;;;1.20;1.00;;;7.20;98.00;;;;;;6186135;23;20407;-69
2021/11/04 05:47:17;;;;;;;1.47;1.03;;;7.10;98.00;;;;;;6185562;23;20523;-69
2021/11/04 05:49:44;;;;;;;1.20;1.00;;;7.10;98.00;;;;;;6185755;23;20422;-68
2021/11/04 05:52:13;;;;;;;1.20;1.00;;;7.10;98.00;;;;;;6185625;23;20890;-69
2021/11/04 05:54:41;;;;;;;1.20;1.00;;;7.10;98.00;;;;;;6185929;23;20433;-68
2021/11/04 05:57:09;;;;;;;1.20;1.00;;;7.10;98.00;;;;;;6185897;23;20438;-69
2021/11/04 05:59:36;;;;;;;1.20;0.90;;;7.20;98.00;;;;;;6186147;23;20469;-69
2021/11/04 06:02:04;;;;;;;1.20;0.93;;;7.10;98.00;;;;;;6186000;23;20707;-71
2021/11/04 06:04:34;;;;;;;1.20;0.90;;;7.20;98.00;;;;;;6186109;23;20407;-69
2021/11/04 06:07:03;;;;;;;1.20;1.00;;;7.10;98.00;;;;;;6185429;23;20393;-70
2021/11/04 06:09:30;;;;;;;1.60;1.10;;;7.10;98.00;;;;;;6186074;23;20724;-71
2021/11/04 06:11:59;;;;;;;1.23;1.10;;;7.10;98.00;;;;;;6185777;23;20402;-70
2021/11/04 06:14:26;;;;;;;1.20;0.90;;;7.00;98.00;;;;;;6186309;23;20404;-70
2021/11/04 06:16:53;;;;;;;1.20;1.00;;;7.10;98.00;;;;;;6185493;23;20411;-69
2021/11/04 06:19:21;;;;;;;1.50;1.10;;;7.00;98.00;;;;;;6159889;23;20450;-70
2021/11/04 06:21:48;;;;;;;1.20;1.00;;;7.00;98.00;;;;;;6185086;23;20469;-69
2021/11/04 06:24:15;;;;;;;1.20;1.00;;;7.00;98.00;;;;;;6185882;23;20402;-71
2021/11/04 06:26:43;;;;;;;1.20;1.00;;;7.10;98.00;;;;;;6185274;23;20462;-71
2021/11/04 06:29:12;;;;;;;1.20;0.90;;;7.10;98.00;;;;;;6185587;23;20403;-71
2021/11/04 06:31:40;;;;;;;1.20;1.00;;;7.30;98.00;;;;;;6185127;23;20400;-71
2021/11/04 06:34:07;;;;;;;1.20;0.90;;;7.30;98.00;;;;;;6185371;23;20856;-70
2021/11/04 06:36:34;;;;;;;1.20;1.00;;;7.30;98.00;;;;;;6184577;23;20403;-71
2021/11/04 06:39:02;;;;;;;1.30;1.03;;;7.20;98.00;;;;;;6185169;23;20513;-71
2021/11/04 06:41:29;;;;;;;1.20;1.00;;;7.40;98.00;;;;;;6185169;23;20476;-70
2021/11/04 06:43:56;;;;;;;1.20;0.90;;;7.30;98.00;;;;;;6185376;23;20414;-69
2021/11/04 06:46:25;;;;;;;1.20;1.00;;;7.30;98.00;;;;;;6185236;23;20400;-71
2021/11/04 06:48:59;;;;;;;1.20;0.90;;;7.20;98.00;;;;;;6159353;23;20483;-70
2021/11/04 06:51:30;;;;;;;1.20;1.00;;;7.20;98.00;;;;;;6185302;23;20403;-70
2021/11/04 06:53:58;;;;;;;1.20;1.00;;;7.10;98.00;;;;;;6185178;23;20469;-70
2021/11/04 06:56:27;;;;;;;1.20;1.03;;;7.20;98.00;;;;;;6185448;23;20394;-70
2021/11/04 06:58:55;;;;;;;1.20;0.90;;;7.10;98.00;;;;;;6185345;23;20738;-69
2021/11/04 07:01:29;;;;;;;1.20;1.00;;;7.10;98.00;;;;;;6185380;23;20410;-70
2021/11/04 07:03:59;;;;;;;1.20;1.00;;;7.00;98.00;;;;;;6185204;23;20405;-69
2021/11/04 07:06:29;;;;;;;1.40;1.00;;;7.10;98.00;;;;;;6185214;23;20402;-70
2021/11/04 07:08:57;;;;;;;1.20;0.90;;;7.00;98.00;;;;;;6185534;23;20421;-70
2021/11/04 07:11:25;;;;;;;1.20;0.90;;;7.10;98.00;;;;;;6185281;23;20399;-69
2021/11/04 07:13:53;;;;;;;1.20;1.10;;;7.20;98.00;;;;;;6184963;23;20458;-70
2021/11/04 07:16:23;;;;;;;1.20;1.00;;;7.20;98.00;;;;;;6185366;23;20458;-69
2021/11/04 07:18:52;;;;;;;1.20;1.00;;;7.10;98.00;;;;;;6185374;23;20434;-69
2021/11/04 07:21:24;;;;;;;1.20;1.00;;;7.00;98.00;;;;;;6158587;23;20434;-70
2021/11/04 07:23:59;;;;;;;1.40;1.00;;;7.10;98.00;;;;;;6185226;23;20404;-69
2021/11/04 07:26:33;;;;;;;1.20;0.97;;;7.10;98.00;;;;;;6184963;23;20491;-69
2021/11/04 07:29:00;;;;;;;1.20;1.00;;;7.10;98.00;;;;;;6185480;23;20398;-71
2021/11/04 07:31:28;;;;;;;1.20;1.00;;;7.10;98.00;;;;;;6185016;23;20460;-71
2021/11/04 07:33:59;;;;;;;1.20;0.90;;;7.10;98.00;;;;;;6184911;23;20402;-70
2021/11/04 07:36:27;;;;;;;1.20;0.90;;;7.10;98.00;;;;;;6158508;23;20407;-69
2021/11/04 07:38:54;;;;;;;1.20;1.00;;;7.10;98.00;;;;;;6184440;23;20434;-70
2021/11/04 07:41:21;;;;;;;1.20;1.10;;;7.20;98.00;;;;;;6184745;23;20400;-70
2021/11/04 07:43:49;;;;;;;1.20;0.97;;;7.20;98.00;;;;;;6184712;23;20415;-70
2021/11/04 07:46:17;;;;;;;1.20;1.00;;;7.20;98.00;;;;;;6184341;23;20405;-69
2021/11/04 07:48:44;;;;;;;1.20;1.00;;;7.30;98.00;;;;;;6184701;23;20396;-71
2021/11/04 07:51:12;;;;;;;1.20;1.00;;;7.40;98.00;;;;;;6184726;23;20403;-69
2021/11/04 07:53:40;;;;;;;1.20;1.00;;;7.40;98.00;;;;;;6184615;23;20464;-70
2021/11/04 07:56:09;;;;;;;1.20;1.00;;;7.40;98.00;;;;;;6184805;23;20423;-70
2021/11/04 07:58:36;;;;;;;1.20;1.00;;;7.30;98.00;;;;;;6184343;23;20516;-68
2021/11/04 08:01:03;;;;;;;1.40;1.20;;;7.30;98.00;;;;;;6184403;23;20900;-70
2021/11/04 08:03:30;;;;;;;1.20;0.90;;;7.20;98.00;;;;;;6158213;23;20908;-71
2021/11/04 08:05:58;;;;;;;1.20;1.00;;;7.30;98.00;;;;;;6158306;23;20898;-70
2021/11/04 08:08:27;;;;;;;1.20;1.00;;;7.40;98.00;;;;;;6184530;23;20400;-69
2021/11/04 08:10:54;;;;;;;1.20;1.00;;;7.40;98.00;;;;;;6184620;23;20762;-69
2021/11/04 08:13:22;;;;;;;1.20;0.90;;;7.30;98.00;;;;;;6184456;23;20400;-69
2021/11/04 08:15:49;;;;;;;1.33;1.20;;;7.20;98.00;;;;;;6184375;23;20403;-72
2021/11/04 08:18:16;;;;;;;1.20;1.00;;;7.30;98.00;;;;;;6181692;23;20480;-70
2021/11/04 08:20:43;;;;;;;1.20;1.10;;;7.30;98.00;;;;;;6183340;23;20407;-70
2021/11/04 08:23:15;;;;;;;1.20;1.00;;;7.40;98.00;;;;;;6183787;23;20865;-71
2021/11/04 08:25:44;;;;;;;1.20;1.00;;;7.50;98.00;;;;;;6183417;23;20407;-72
2021/11/04 08:28:12;;;;;;;1.20;1.00;;;7.50;98.00;;;;;;6183226;23;20423;-71
2021/11/04 08:30:39;;;;;;;1.20;1.00;;;7.60;98.00;;;;;;6157463;23;20404;-72
2021/11/04 08:33:06;;;;;;;1.20;1.00;;;7.40;98.00;;;;;;6183449;23;20709;-71
2021/11/04 08:35:33;;;;;;;1.20;1.00;;;7.30;98.00;;;;;;6183139;23;20858;-70
2021/11/04 08:38:00;;;;;;;1.37;1.20;;;7.30;98.00;;;;;;6183058;23;20428;-71
2021/11/04 08:40:28;;;;;;;1.20;1.00;;;7.30;98.00;;;;;;6183520;23;20456;-70
2021/11/04 08:42:56;;;;;;;1.20;1.00;;;7.30;98.00;;;;;;6183226;23;20949;-70
2021/11/04 08:45:24;;;;;;;1.20;1.00;;;7.30;98.00;;;;;;6183679;23;20415;-71
2021/11/04 08:47:51;;;;;;;1.20;0.90;;;7.30;98.00;;;;;;6182696;23;21309;-71
2021/11/04 08:50:18;;;;;;;1.20;1.00;;;7.40;98.00;;;;;;6155260;23;20415;-73
2021/11/04 08:52:46;;;;;;;1.20;1.00;;;7.50;98.00;;;;;;6182507;23;20415;-70
2021/11/04 08:55:14;;;;;;;1.20;0.90;;;7.40;98.00;;;;;;6183158;23;20451;-71
2021/11/04 08:57:41;;;;;;;1.53;1.10;;;7.40;98.00;;;;;;6182878;23;20405;-71
2021/11/04 09:00:20;;;;;;;1.20;0.90;;;7.40;98.00;;;;;;6182921;23;20403;-71
2021/11/04 09:02:47;;;;;;;1.20;1.00;;;7.40;98.00;;;;;;6183631;23;20439;-70
2021/11/04 09:05:16;;;;;;;1.20;1.00;;;7.50;98.00;;;;;;6184180;23;20396;-69
2021/11/04 09:07:44;;;;;;;1.20;1.00;;;7.40;98.00;;;;;;6183915;23;20400;-71
2021/11/04 09:10:13;;;;;;;1.20;1.00;;;7.30;98.00;;;;;;6183723;23;20407;-70
2021/11/04 09:12:40;;;;;;;2.07;1.20;;;7.40;98.00;;;;;;6184050;23;20457;-72
2021/11/04 09:15:11;;;;;;;1.20;0.90;;;7.30;98.00;;;;;;6183819;23;20420;-70
2021/11/04 09:17:38;;;;;;;1.20;1.00;;;7.20;98.00;;;;;;6182844;23;20409;-70
2021/11/04 09:20:07;;;;;;;1.20;1.00;;;7.20;98.00;;;;;;6184395;23;20402;-70
2021/11/04 09:22:35;;;;;;;1.20;1.10;;;7.10;98.00;;;;;;6183934;23;20441;-70
2021/11/04 09:25:04;;;;;;;1.20;1.00;;;7.20;98.00;;;;;;6184069;23;20473;-71
2021/11/04 09:27:31;;;;;;;1.20;1.00;;;7.20;98.00;;;;;;6183976;23;20426;-71
2021/11/04 09:29:58;;;;;;;1.20;1.00;;;7.30;98.00;;;;;;6183381;23;20404;-72
2021/11/04 09:32:27;;;;;;;1.20;1.00;;;7.20;98.00;;;;;;6156993;23;20404;-71
2021/11/04 09:34:55;;;;;;;1.20;1.00;;;7.20;98.00;;;;;;6156867;23;20399;-71
2021/11/04 09:37:23;;;;;;;1.20;1.00;;;7.20;98.00;;;;;;6184296;23;20438;-70
2021/11/04 09:39:50;;;;;;;1.20;0.90;;;7.30;98.00;;;;;;6157935;23;20510;-71
2021/11/04 09:42:18;;;;;;;1.20;1.00;;;7.30;98.00;;;;;;6184134;23;20404;-70
2021/11/04 09:44:45;;;;;;;1.80;1.10;;;7.20;98.00;;;;;;6183981;23;20913;-69
2021/11/04 09:47:13;;;;;;;1.20;1.00;;;7.10;98.00;;;;;;6152416;23;20483;-71
2021/11/04 09:49:42;;;;;;;1.10;0.90;;;7.20;98.00;;;;;;6154353;23;20418;-73
2021/11/04 09:52:09;;;;;;;1.20;1.00;;;7.30;98.00;;;;;;6154566;23;20463;-70
2021/11/04 09:54:36;;;;;;;1.20;1.00;;;7.30;98.00;;;;;;6154284;23;20970;-69
2021/11/04 09:57:03;;;;;;;1.20;1.00;;;7.30;98.00;;;;;;6154084;23;20406;-70
2021/11/04 09:59:30;;;;;;;1.10;0.97;;;7.30;98.00;;;;;;6154150;23;20428;-69
2021/11/04 10:01:58;;;;;;;1.10;1.00;;;7.20;98.00;;;;;;6152593;23;20804;-70
2021/11/04 10:04:37;;;;;;;1.20;1.10;;;7.20;98.00;;;;;;6154337;23;20398;-70
2021/11/04 10:07:07;;;;;;;1.20;1.00;;;7.10;98.00;;;;;;6153606;23;20401;-71
2021/11/04 10:09:35;;;;;;;1.20;0.97;;;7.20;98.00;;;;;;6154381;23;20792;-70
2021/11/04 10:12:06;;;;;;;1.10;1.00;;;7.20;98.00;;;;;;6152908;23;20424;-70
2021/11/04 10:14:34;;;;;;;1.10;1.00;;;7.30;98.00;;;;;;6155275;23;20511;-69
2021/11/04 10:17:01;;;;;;;1.10;0.90;;;8.00;98.00;;;;;;6154717;23;20416;-69
2021/11/04 10:19:40;;;;;;;1.10;0.90;;;8.90;98.00;;;;;;6155375;23;20429;-69
2021/11/04 10:22:10;;;;;;;1.20;0.90;;;9.70;98.00;;;;;;6154979;23;20502;-69
2021/11/04 10:24:48;;;;;;;1.20;1.00;;;9.90;98.00;;;;;;6155723;23;20431;-69
2021/11/04 10:27:33;;;;;;;1.20;1.00;;;9.60;98.00;;;;;;6155945;23;20421;-70
2021/11/04 10:30:03;;;;;;;1.20;1.00;;;9.30;98.00;;;;;;6155698;23;20954;-70
2021/11/04 10:32:35;;;;;;;1.20;1.00;;;8.90;98.00;;;;;;6155742;23;20401;-70
2021/11/04 10:35:08;;;;;;;1.27;1.13;;;8.60;98.00;;;;;;6155473;23;20482;-69
2021/11/04 10:37:50;;;;;;;1.30;1.00;;;8.30;98.00;;;;;;6153992;23;20424;-70
2021/11/04 10:40:19;;;;;;;1.20;0.90;;;8.00;98.00;;;;;;6155774;23;20931;-69
2021/11/04 10:42:55;;;;;;;1.23;1.10;;;7.70;98.00;;;;;;6155444;23;20413;-70
2021/11/04 10:45:23;;;;;;;1.20;0.93;;;7.60;98.00;;;;;;6155401;23;20401;-70
2021/11/04 10:48:17;;;;;;;1.20;0.90;;;7.50;98.00;;;;;;6175958;23;20435;-70
2021/11/04 10:50:45;;;;;;;1.30;1.10;;;7.50;98.00;;;;;;6185125;23;20781;-70
2021/11/04 10:53:16;;;;;;;1.20;1.00;;;7.40;98.00;;;;;;6184305;23;20434;-71
2021/11/04 10:55:45;;;;;;;1.20;1.00;;;7.40;98.00;;;;;;6185282;23;20403;-70
2021/11/04 10:58:27;;;;;;;1.20;1.07;;;7.20;98.00;;;;;;6185363;23;20414;-70
2021/11/04 11:00:57;;;;;;;1.20;1.00;;;7.40;98.00;;;;;;6185478;23;20756;-72
2021/11/04 11:03:25;;;;;;;1.20;1.00;;;7.30;98.00;;;;;;6185248;23;20396;-70
2021/11/04 11:05:55;;;;;;;1.20;1.00;;;7.30;98.00;;;;;;6185160;23;20394;-71
2021/11/04 11:08:25;;;;;;;1.30;1.10;;;7.20;98.00;;;;;;6185865;23;20449;-69
2021/11/04 11:10:52;;;;;;;1.20;1.00;;;7.20;98.00;;;;;;6185240;23;20481;-71
2021/11/04 11:13:20;;;;;;;1.20;1.00;;;7.20;98.00;;;;;;6185632;23;20411;-69
2021/11/04 11:15:52;;;;;;;1.20;0.90;;;7.20;98.00;;;;;;6184932;23;20456;-69
2021/11/04 11:18:22;;;;;;;1.20;1.00;;;7.20;98.00;;;;;;6184964;23;20402;-70
2021/11/04 11:20:50;;;;;;;1.10;0.90;;;7.10;98.00;;;;;;6185076;23;20409;-70
2021/11/04 11:23:19;;;;;;;2.80;1.17;;;7.00;98.00;;;;;;6183781;23;20409;-70
2021/11/04 11:25:52;;;;;;;1.30;1.20;;;7.10;98.00;;;;;;6184971;23;20399;-72
2021/11/04 11:28:24;;;;;;;1.10;0.90;;;7.10;98.00;;;;;;6185050;23;20406;-70
2021/11/04 11:31:19;;;;;;;1.20;1.00;;;7.10;98.00;;;;;;6159497;23;20470;-70
2021/11/04 11:33:49;;;;;;;1.10;0.93;;;7.10;98.00;;;;;;6170939;23;20473;-70
2021/11/04 11:36:19;;;;;;;1.40;1.10;;;7.00;98.00;;;;;;6184383;23;20418;-68
2021/11/04 11:39:07;;;;;;;1.10;1.00;;;7.10;98.00;;;;;;6184722;23;20427;-71
2021/11/04 11:42:08;;;;;;;1.10;0.97;;;7.00;98.00;;;;;;6184451;23;20401;-72
2021/11/04 11:44:36;;;;;;;1.10;0.90;;;7.20;98.00;;;;;;6184385;23;20454;-71
2021/11/04 11:47:05;;;;;;;1.10;0.93;;;7.20;98.00;;;;;;6186021;23;20492;-70
2021/11/04 11:49:33;;;;;;;1.20;1.00;;;7.20;98.00;;;;;;6158416;23;20424;-69
2021/11/04 11:52:00;;;;;;;1.10;0.90;;;7.10;98.00;;;;;;6158302;23;20436;-70
2021/11/04 11:54:58;;;;;;;1.10;0.90;;;7.00;98.00;;;;;;6184768;23;20807;-70
2021/11/04 11:57:27;;;;;;;1.10;1.00;;;7.10;98.00;;;;;;6183714;23;20419;-70
2021/11/04 11:59:55;;;;;;;1.10;0.90;;;7.10;98.00;;;;;;6184845;23;20520;-70
2021/11/04 12:02:43;;;;;;;1.10;1.00;;;7.10;98.00;;;;;;6184712;23;20474;-70
2021/11/04 12:05:36;;;;;;;1.10;0.90;;;7.10;98.00;;;;;;6185010;23;20401;-70
2021/11/04 12:08:33;;;;;;;1.57;1.07;;;7.20;98.00;;;;;;6184805;23;20902;-70
2021/11/04 12:11:10;;;;;;;1.10;1.00;;;7.30;98.00;;;;;;6184981;23;20402;-72
2021/11/04 12:13:44;;;;;;;1.10;1.00;;;7.40;98.00;;;;;;6184460;23;20786;-71
2021/11/04 12:16:20;;;;;;;1.10;1.00;;;7.40;98.00;;;;;;6184924;23;20399;-70
2021/11/04 12:18:50;;;;;;;1.20;1.00;;;7.40;98.00;;;;;;6184710;23;20452;-71
2021/11/04 12:21:23;;;;;;;1.10;0.90;;;7.40;98.00;;;;;;6184933;23;20759;-70
2021/11/04 12:23:51;;;;;;;1.17;1.00;;;7.40;98.00;;;;;;6185052;23;20404;-69
2021/11/04 12:26:32;;;;;;;1.17;1.00;;;7.30;98.00;;;;;;6184951;23;20401;-69
2021/11/04 12:29:01;;;;;;;1.10;0.93;;;7.20;98.00;;;;;;6184830;23;20454;-68
2021/11/04 12:31:29;;;;;;;1.10;0.90;;;8.20;98.00;;;;;;6184705;23;20495;-69
2021/11/04 12:33:57;;;;;;;1.20;1.00;;;8.40;98.00;;;;;;6184035;23;20407;-69
2021/11/04 12:36:35;;;;;;;1.30;1.10;;;8.30;98.00;;;;;;6158685;23;20481;-69
2021/11/04 12:39:05;;;;;;;1.40;1.07;;;7.90;98.00;;;;;;6184493;23;20429;-69
2021/11/04 12:41:32;;;;;;;1.30;1.20;;;7.80;98.00;;;;;;6183994;23;20410;-69
2021/11/04 12:44:10;;;;;;;1.50;1.17;;;7.80;98.00;;;;;;6184451;23;20411;-69
2021/11/04 12:46:37;;;;;;;1.30;1.10;;;7.80;98.00;;;;;;6183929;23;20423;-70
2021/11/04 12:49:08;;;;;;;1.20;0.90;;;7.70;98.00;;;;;;6158389;23;20490;-69
2021/11/04 12:51:51;;;;;;;1.20;0.97;;;7.60;98.00;;;;;;6184194;23;20449;-69
2021/11/04 12:54:23;;;;;;;1.40;1.00;;;7.60;98.00;;;;;;6184195;23;20398;-68
2021/11/04 12:56:53;;;;;;;1.10;0.90;;;7.60;98.00;;;;;;6184012;23;20454;-71
2021/11/04 12:59:35;;;;;;;1.63;1.30;;;7.60;98.00;;;;;;6184283;23;20437;-69
2021/11/04 13:02:08;;;;;;;1.50;1.10;;;7.60;98.00;;;;;;6184410;23;20480;-72
2021/11/04 13:04:37;;;;;;;1.60;1.20;;;7.50;98.00;;;;;;6184500;23;20784;-69
2021/11/04 13:07:06;;;;;;;1.20;1.10;;;7.50;98.00;;;;;;6184442;23;20403;-69
2021/11/04 13:09:43;;;;;;;1.20;1.00;;;7.50;98.00;;;;;;6184084;23;20952;-69